createdAt,value
2018-10-05T00:00:06.170Z,30.10
2018-10-05T00:02:37.872Z,30.10
2018-10-05T00:05:09.260Z,30.00
2018-10-05T00:07:41.479Z,29.90
2018-10-05T00:10:12.831Z,29.90
2018-10-05T00:12:44.501Z,29.90
2018-10-05T00:15:15.829Z,29.80
2018-10-05T00:17:48.698Z,29.70
2018-10-05T00:20:20.143Z,29.60
2018-10-05T00:22:52.036Z,29.60
2018-10-05T00:25:23.577Z,29.60
2018-10-05T00:27:55.335Z,29.60
2018-10-05T00:30:26.633Z,29.60
2018-10-05T00:32:58.388Z,29.60
2018-10-05T00:35:29.680Z,29.60
2018-10-05T00:38:02.347Z,29.60
2018-10-05T00:40:33.886Z,29.60
2018-10-05T00:43:05.970Z,29.50
2018-10-05T00:45:37.308Z,29.50
2018-10-05T00:48:08.567Z,29.40
2018-10-05T00:50:40.042Z,29.50
2018-10-05T00:53:12.046Z,29.50
2018-10-05T00:55:43.403Z,29.50
2018-10-05T00:58:15.132Z,29.40
2018-10-05T01:00:46.451Z,29.40
2018-10-05T01:03:18.430Z,29.40
2018-10-05T01:05:49.724Z,29.40
2018-10-05T01:08:21.142Z,29.40
2018-10-05T01:10:52.536Z,29.40
2018-10-05T01:13:24.238Z,29.40
2018-10-05T01:15:55.407Z,29.40
2018-10-05T01:18:28.510Z,29.30
2018-10-05T01:20:59.771Z,29.30
2018-10-05T01:23:31.264Z,29.30
2018-10-05T01:26:03.027Z,29.30
2018-10-05T01:28:34.323Z,29.20
2018-10-05T01:31:07.283Z,29.30
2018-10-05T01:33:39.166Z,29.30
2018-10-05T01:36:10.402Z,29.30
2018-10-05T01:38:41.944Z,29.20
2018-10-05T01:41:13.900Z,29.20
2018-10-05T01:43:45.847Z,29.10
2018-10-05T01:46:17.120Z,29.00
2018-10-05T01:48:48.576Z,29.10
2018-10-05T01:51:30.240Z,29.10
2018-10-05T01:54:02.347Z,29.10
2018-10-05T01:56:34.175Z,29.00
2018-10-05T01:59:05.921Z,29.10
2018-10-05T02:01:37.199Z,29.10
2018-10-05T02:04:08.911Z,29.00
2018-10-05T02:06:40.606Z,29.00
2018-10-05T02:09:12.495Z,29.00
2018-10-05T02:11:43.907Z,28.90
2018-10-05T02:14:15.478Z,28.90
2018-10-05T02:16:46.824Z,28.80
2018-10-05T02:19:20.391Z,28.90
2018-10-05T02:21:51.651Z,28.80
2018-10-05T02:24:23.324Z,28.80
2018-10-05T02:26:54.952Z,28.80
2018-10-05T02:29:26.695Z,28.80
2018-10-05T02:31:58.616Z,28.90
2018-10-05T02:34:30.495Z,28.90
2018-10-05T02:37:02.311Z,28.90
2018-10-05T02:39:34.100Z,28.90
2018-10-05T02:42:05.301Z,28.90
2018-10-05T02:44:36.695Z,28.90
2018-10-05T02:47:07.899Z,28.90
2018-10-05T02:49:39.660Z,29.00
2018-10-05T02:52:10.935Z,29.10
2018-10-05T02:54:42.388Z,29.10
2018-10-05T02:57:14.035Z,29.20
2018-10-05T02:59:45.544Z,29.20
2018-10-05T03:02:33.240Z,29.30
2018-10-05T03:05:05.367Z,29.30
2018-10-05T03:07:37.271Z,29.30
2018-10-05T03:10:08.854Z,29.40
2018-10-05T03:12:40.251Z,29.50
2018-10-05T03:15:11.708Z,29.50
2018-10-05T03:17:43.067Z,29.70
2018-10-05T03:20:16.192Z,29.80
2018-10-05T03:22:47.487Z,30.00
2018-10-05T03:25:19.331Z,30.20
2018-10-05T03:27:50.411Z,30.30
2018-10-05T03:30:22.144Z,30.40
2018-10-05T03:32:53.740Z,30.50
2018-10-05T03:35:25.501Z,30.50
2018-10-05T03:37:57.257Z,30.60
2018-10-05T03:40:28.794Z,30.70
2018-10-05T03:43:00.189Z,30.90
2018-10-05T03:45:32.575Z,31.20
2018-10-05T03:48:04.420Z,31.40
2018-10-05T03:50:36.080Z,31.70
2018-10-05T03:53:07.792Z,32.30
2018-10-05T03:55:39.712Z,33.90
2018-10-05T03:58:11.008Z,35.00
2018-10-05T04:00:42.760Z,35.30
2018-10-05T04:03:14.324Z,34.70
2018-10-05T04:05:46.599Z,34.10
2018-10-05T04:08:17.830Z,33.60
2018-10-05T04:10:49.613Z,33.20
2018-10-05T04:13:21.155Z,33.10
2018-10-05T04:15:52.789Z,33.30
2018-10-05T04:18:24.039Z,33.40
2018-10-05T04:20:56.992Z,33.20
2018-10-05T04:23:28.486Z,33.30
2018-10-05T04:26:00.443Z,33.50
2018-10-05T04:28:31.487Z,33.60
2018-10-05T04:31:06.300Z,33.80
2018-10-05T04:33:37.890Z,34.10
2018-10-05T04:36:09.324Z,34.40
2018-10-05T04:38:40.679Z,34.60
2018-10-05T04:41:12.474Z,34.60
2018-10-05T04:43:43.921Z,34.80
2018-10-05T04:46:15.540Z,35.00
2018-10-05T04:48:46.747Z,35.20
2018-10-05T04:51:18.412Z,35.80
2018-10-05T04:53:50.004Z,36.20
2018-10-05T04:56:21.407Z,36.60
2018-10-05T04:58:52.768Z,37.10
2018-10-05T05:01:24.313Z,37.30
2018-10-05T05:03:55.672Z,37.50
2018-10-05T05:06:27.364Z,37.70
2018-10-05T05:08:58.646Z,37.70
2018-10-05T05:11:30.550Z,38.10
2018-10-05T05:14:03.843Z,39.00
2018-10-05T05:16:35.567Z,40.50
2018-10-05T05:19:08.429Z,41.50
2018-10-05T05:21:48.254Z,42.30
2018-10-05T05:24:21.085Z,42.70
2018-10-05T05:26:54.513Z,42.10
2018-10-05T05:29:26.673Z,41.50
2018-10-05T05:31:59.023Z,41.30
2018-10-05T05:34:30.319Z,40.50
2018-10-05T05:37:02.124Z,39.80
2018-10-05T05:39:33.358Z,39.10
2018-10-05T05:42:06.043Z,38.80
2018-10-05T05:44:37.285Z,39.00
2018-10-05T05:47:09.335Z,39.10
2018-10-05T05:49:42.515Z,39.20
2018-10-05T05:52:15.040Z,39.10
2018-10-05T05:54:46.748Z,38.90
2018-10-05T05:57:24.860Z,38.90
2018-10-05T05:59:56.431Z,38.80
2018-10-05T06:02:29.148Z,38.40
2018-10-05T06:05:02.495Z,38.50
2018-10-05T06:07:34.202Z,38.40
2018-10-05T06:10:05.533Z,38.70
2018-10-05T06:12:37.088Z,39.10
2018-10-05T06:15:08.444Z,39.10
2018-10-05T06:17:40.124Z,39.10
2018-10-05T06:20:11.319Z,39.00
2018-10-05T06:22:44.901Z,38.90
2018-10-05T06:25:16.336Z,39.20
2018-10-05T06:27:48.024Z,39.80
2018-10-05T06:30:19.516Z,40.00
2018-10-05T06:32:51.223Z,39.70
2018-10-05T06:35:22.480Z,39.50
2018-10-05T06:37:54.397Z,39.30
2018-10-05T06:40:25.612Z,39.60
2018-10-05T06:42:57.271Z,40.50
2018-10-05T06:45:28.471Z,42.40
2018-10-05T06:48:00.135Z,43.10
2018-10-05T06:50:31.620Z,43.50
2018-10-05T06:53:03.430Z,44.20
2018-10-05T06:55:34.690Z,44.40
2018-10-05T06:58:06.680Z,43.30
2018-10-05T07:00:37.870Z,42.10
2018-10-05T07:03:10.074Z,41.50
2018-10-05T07:05:42.011Z,40.70
2018-10-05T07:08:13.965Z,40.60
2018-10-05T07:10:45.287Z,40.00
2018-10-05T07:13:17.100Z,40.00
2018-10-05T07:15:48.649Z,40.20
2018-10-05T07:18:20.115Z,40.30
2018-10-05T07:20:53.263Z,40.40
2018-10-05T07:23:26.039Z,39.60
2018-10-05T07:25:57.494Z,39.70
2018-10-05T07:38:45.264Z,39.60
2018-10-05T07:41:16.569Z,39.50
2018-10-05T07:43:48.470Z,39.30
2018-10-05T07:46:19.883Z,39.10
2018-10-05T07:48:51.751Z,39.30
2018-10-05T07:51:23.164Z,39.10
2018-10-05T07:53:54.580Z,38.90
2018-10-05T07:56:25.890Z,39.20
2018-10-05T07:58:57.316Z,39.40
2018-10-05T08:01:28.472Z,39.50
2018-10-05T08:04:00.247Z,40.70
2018-10-05T08:06:31.515Z,42.60
2018-10-05T08:09:03.679Z,43.50
2018-10-05T08:11:35.207Z,44.40
2018-10-05T08:14:06.759Z,44.30
2018-10-05T08:16:38.144Z,42.70
2018-10-05T08:19:09.736Z,41.70
2018-10-05T08:21:42.473Z,41.10
2018-10-05T08:24:16.000Z,40.30
2018-10-05T08:26:47.624Z,39.70
2018-10-05T08:29:19.362Z,39.40
2018-10-05T08:31:50.711Z,39.40
2018-10-05T08:34:22.184Z,39.40
2018-10-05T08:36:53.960Z,39.20
2018-10-05T08:39:25.756Z,39.10
2018-10-05T08:41:57.257Z,39.10
2018-10-05T08:44:29.168Z,38.90
2018-10-05T08:47:00.418Z,38.70
2018-10-05T08:49:32.196Z,38.60
2018-10-05T08:52:03.417Z,38.40
2018-10-05T08:54:34.977Z,38.20
2018-10-05T08:57:06.568Z,38.40
2018-10-05T08:59:38.215Z,38.40
2018-10-05T09:02:09.639Z,38.70
2018-10-05T09:04:41.761Z,38.50
2018-10-05T09:07:13.368Z,38.40
2018-10-05T09:09:44.784Z,38.20
2018-10-05T09:12:16.387Z,38.20
2018-10-05T09:14:48.027Z,38.30
2018-10-05T09:17:19.289Z,38.40
2018-10-05T09:19:51.335Z,38.40
2018-10-05T09:22:23.873Z,38.20
2018-10-05T09:24:56.764Z,38.40
2018-10-05T09:27:28.040Z,38.40
2018-10-05T09:30:02.185Z,38.30
2018-10-05T09:32:33.616Z,38.20
2018-10-05T09:35:05.248Z,38.30
2018-10-05T09:37:36.473Z,38.20
2018-10-05T09:40:11.128Z,38.00
2018-10-05T09:42:42.299Z,38.10
2018-10-05T09:45:13.932Z,38.10
2018-10-05T09:47:45.387Z,38.00
2018-10-05T09:50:16.972Z,38.00
2018-10-05T09:52:48.436Z,37.70
2018-10-05T09:55:20.276Z,37.90
2018-10-05T09:57:51.535Z,37.80
2018-10-05T10:00:27.664Z,37.90
2018-10-05T10:03:06.403Z,37.90
2018-10-05T10:05:39.439Z,37.80
2018-10-05T10:08:10.819Z,37.70
2018-10-05T10:10:43.030Z,37.70
2018-10-05T10:13:14.399Z,37.80
2018-10-05T10:15:46.282Z,37.80
2018-10-05T10:18:17.588Z,37.60
2018-10-05T10:20:49.328Z,37.70
2018-10-05T10:23:20.680Z,37.70
2018-10-05T10:25:53.871Z,37.70
2018-10-05T10:28:25.213Z,37.60
2018-10-05T10:30:56.886Z,37.50
2018-10-05T10:33:28.687Z,37.40
2018-10-05T10:36:00.688Z,37.60
2018-10-05T10:38:34.237Z,37.70
2018-10-05T10:41:05.727Z,37.60
2018-10-05T10:43:37.196Z,37.60
2018-10-05T10:46:10.158Z,37.70
2018-10-05T10:48:43.012Z,37.60
2018-10-05T10:51:16.288Z,37.40
2018-10-05T10:53:48.844Z,37.50
2018-10-05T10:56:24.239Z,37.60
2018-10-05T10:58:55.795Z,37.50
2018-10-05T11:01:29.957Z,37.40
2018-10-05T11:04:01.045Z,37.20
2018-10-05T11:06:32.813Z,37.10
2018-10-05T11:09:05.464Z,36.90
2018-10-05T11:11:37.264Z,36.90
2018-10-05T11:14:08.752Z,36.80
2018-10-05T11:16:40.550Z,36.70
2018-10-05T11:19:11.621Z,36.70
2018-10-05T11:21:43.435Z,36.70
2018-10-05T11:24:14.690Z,36.80
2018-10-05T11:26:48.322Z,36.50
2018-10-05T11:29:19.643Z,36.50
2018-10-05T11:31:57.747Z,36.40
2018-10-05T11:34:29.431Z,36.50
2018-10-05T11:37:01.616Z,36.40
2018-10-05T11:39:32.821Z,36.50
2018-10-05T11:42:04.399Z,36.60
2018-10-05T11:44:35.523Z,36.60
2018-10-05T11:47:07.368Z,36.70
2018-10-05T11:49:39.589Z,36.50
2018-10-05T11:52:15.715Z,36.40
2018-10-05T11:54:54.627Z,36.40
2018-10-05T11:57:26.616Z,36.40
2018-10-05T11:59:57.983Z,36.30
2018-10-05T12:02:29.912Z,36.30
2018-10-05T12:05:02.721Z,36.30
2018-10-05T12:07:36.088Z,36.30
2018-10-05T12:10:12.745Z,36.30
2018-10-05T12:12:46.287Z,36.30
2018-10-05T12:15:17.781Z,36.30
2018-10-05T12:17:49.882Z,36.10
2018-10-05T12:20:21.312Z,36.00
2018-10-05T12:22:52.987Z,36.10
2018-10-05T12:25:27.719Z,36.00
2018-10-05T12:28:01.335Z,35.80
2018-10-05T12:30:32.555Z,35.80
2018-10-05T12:33:04.329Z,35.80
2018-10-05T12:35:35.727Z,35.90
2018-10-05T12:38:10.654Z,35.80
2018-10-05T12:40:47.516Z,35.80
2018-10-05T12:43:19.935Z,35.70
2018-10-05T12:45:53.608Z,35.50
2018-10-05T12:48:25.528Z,35.50
2018-10-05T12:50:57.466Z,35.50
2018-10-05T12:53:29.143Z,35.40
2018-10-05T12:56:00.597Z,35.30
2018-10-05T12:58:32.065Z,35.30
2018-10-05T13:01:03.736Z,35.10
2018-10-05T13:03:35.514Z,35.00
2018-10-05T13:06:07.183Z,35.10
2018-10-05T13:08:38.763Z,35.20
2018-10-05T13:11:10.180Z,35.10
2018-10-05T13:13:41.892Z,34.90
2018-10-05T13:16:13.214Z,34.90
2018-10-05T13:18:45.116Z,34.80
2018-10-05T13:21:16.736Z,34.80
2018-10-05T13:23:48.400Z,34.80
2018-10-05T13:26:19.841Z,34.70
2018-10-05T13:28:52.792Z,34.70
2018-10-05T13:31:24.044Z,34.70
2018-10-05T13:33:55.847Z,34.50
2018-10-05T13:36:27.113Z,34.30
2018-10-05T13:38:58.912Z,34.30
2018-10-05T13:41:30.439Z,34.30
2018-10-05T13:44:02.628Z,34.30
2018-10-05T13:46:34.399Z,34.20
2018-10-05T13:49:07.232Z,34.10
2018-10-05T13:51:38.564Z,34.10
2018-10-05T13:54:10.168Z,34.10
2018-10-05T13:56:41.620Z,34.10
2018-10-05T13:59:13.192Z,33.90
2018-10-05T14:01:44.427Z,33.90
2018-10-05T14:04:16.555Z,33.90
2018-10-05T14:06:47.751Z,33.90
2018-10-05T14:09:19.386Z,33.80
2018-10-05T14:11:50.631Z,33.80
2018-10-05T14:14:22.232Z,33.70
2018-10-05T14:16:53.870Z,33.60
2018-10-05T14:19:25.347Z,33.60
2018-10-05T14:21:56.801Z,33.50
2018-10-05T14:24:28.547Z,33.40
2018-10-05T14:26:59.829Z,33.50
2018-10-05T14:29:32.165Z,33.50
2018-10-05T14:32:04.259Z,33.50
2018-10-05T14:34:35.978Z,33.40
2018-10-05T14:37:07.420Z,33.40
2018-10-05T14:39:38.873Z,33.40
2018-10-05T14:42:10.265Z,33.30
2018-10-05T14:44:41.735Z,33.30
2018-10-05T14:47:13.108Z,33.20
2018-10-05T14:49:44.748Z,33.30
2018-10-05T14:52:20.325Z,33.30
2018-10-05T14:54:52.407Z,33.20
2018-10-05T14:57:23.832Z,33.20
2018-10-05T14:59:55.580Z,33.20
2018-10-05T15:02:27.091Z,33.20
2018-10-05T15:04:58.491Z,33.20
2018-10-05T15:07:29.818Z,33.20
2018-10-05T15:10:02.186Z,33.10
2018-10-05T15:12:33.708Z,33.10
2018-10-05T15:15:05.824Z,33.10
2018-10-05T15:17:37.120Z,33.00
2018-10-05T15:20:08.971Z,32.90
2018-10-05T15:22:40.007Z,32.90
2018-10-05T15:25:11.755Z,32.90
2018-10-05T15:27:43.319Z,33.00
2018-10-05T15:30:16.235Z,32.90
2018-10-05T15:32:47.706Z,33.00
2018-10-05T15:35:20.228Z,32.90
2018-10-05T15:37:51.832Z,33.00
2018-10-05T15:40:23.379Z,32.90
2018-10-05T15:42:54.708Z,32.80
2018-10-05T15:45:26.175Z,32.90
2018-10-05T15:47:57.755Z,32.90
2018-10-05T15:50:29.316Z,32.90
2018-10-05T15:53:00.428Z,32.90
2018-10-05T15:55:32.259Z,32.90
2018-10-05T15:58:03.624Z,32.90
2018-10-05T16:00:35.252Z,33.00
2018-10-05T16:03:06.930Z,33.00
2018-10-05T16:05:38.769Z,33.00
2018-10-05T16:08:10.131Z,33.00
2018-10-05T16:10:41.812Z,33.00
2018-10-05T16:13:13.484Z,33.00
2018-10-05T16:15:45.024Z,32.90
2018-10-05T16:18:16.710Z,33.00
2018-10-05T16:20:48.573Z,32.90
2018-10-05T16:23:20.011Z,32.90
2018-10-05T16:25:51.720Z,32.90
2018-10-05T16:28:22.951Z,32.90
2018-10-05T16:30:55.426Z,32.90
2018-10-05T16:33:26.679Z,32.90
2018-10-05T16:35:58.512Z,32.90
2018-10-05T16:38:30.020Z,32.90
2018-10-05T16:41:02.589Z,32.80
2018-10-05T16:43:34.013Z,32.70
2018-10-05T16:46:05.576Z,32.70
2018-10-05T16:48:36.992Z,32.70
2018-10-05T16:51:08.563Z,32.60
2018-10-05T16:53:39.863Z,32.70
2018-10-05T16:56:11.699Z,32.60
2018-10-05T16:58:43.330Z,32.60
2018-10-05T17:01:14.985Z,32.60
2018-10-05T17:03:46.504Z,32.60
2018-10-05T17:06:18.071Z,32.60
2018-10-05T17:08:51.248Z,32.60
2018-10-05T17:11:22.971Z,32.60
2018-10-05T17:13:54.172Z,32.60
2018-10-05T17:16:25.776Z,32.60
2018-10-05T17:18:57.044Z,32.60
2018-10-05T17:21:29.057Z,32.60
2018-10-05T17:24:00.561Z,32.60
2018-10-05T17:26:31.893Z,32.60
2018-10-05T17:29:03.322Z,32.50
2018-10-05T17:31:35.616Z,32.50
2018-10-05T17:34:07.054Z,32.50
2018-10-05T17:36:38.564Z,32.50
2018-10-05T17:39:11.597Z,32.50
2018-10-05T17:41:42.932Z,32.50
2018-10-05T17:44:14.377Z,32.50
2018-10-05T17:46:46.440Z,32.50
2018-10-05T17:49:18.015Z,32.50
2018-10-05T17:51:50.152Z,32.50
2018-10-05T17:54:21.360Z,32.60
2018-10-05T17:56:53.170Z,32.50
2018-10-05T17:59:24.675Z,32.50
2018-10-05T18:01:56.241Z,32.50
2018-10-05T18:04:27.692Z,32.40
2018-10-05T18:06:59.355Z,32.40
2018-10-05T18:09:30.688Z,32.50
2018-10-05T18:12:02.200Z,32.50
2018-10-05T18:14:33.409Z,32.50
2018-10-05T18:17:05.311Z,32.50
2018-10-05T18:19:36.603Z,32.60
2018-10-05T18:22:08.341Z,32.50
2018-10-05T18:24:39.871Z,32.50
2018-10-05T18:27:11.268Z,32.50
2018-10-05T18:29:42.723Z,32.40
2018-10-05T18:32:15.614Z,32.40
2018-10-05T18:34:46.980Z,32.40
2018-10-05T18:37:18.656Z,32.40
2018-10-05T18:39:49.992Z,32.40
2018-10-05T18:42:21.808Z,32.30
2018-10-05T18:44:53.172Z,32.30
2018-10-05T18:47:24.863Z,32.40
2018-10-05T18:49:56.437Z,32.40
2018-10-05T18:52:28.219Z,32.40
2018-10-05T18:54:59.700Z,32.30
2018-10-05T18:57:31.496Z,32.30
2018-10-05T19:00:02.972Z,32.30
2018-10-05T19:02:35.063Z,32.30
2018-10-05T19:05:06.899Z,32.30
2018-10-05T19:07:38.702Z,32.30
2018-10-05T19:10:10.105Z,32.20
2018-10-05T19:12:41.675Z,32.30
2018-10-05T19:15:13.156Z,32.30
2018-10-05T19:17:44.534Z,32.20
2018-10-05T19:20:17.374Z,32.20
2018-10-05T19:22:49.180Z,32.20
2018-10-05T19:25:20.498Z,32.20
2018-10-05T19:27:52.212Z,32.20
2018-10-05T19:30:23.748Z,32.20
2018-10-05T19:32:56.632Z,32.20
2018-10-05T19:35:28.127Z,32.10
2018-10-05T19:37:59.947Z,32.10
2018-10-05T19:40:31.260Z,32.00
2018-10-05T19:43:03.178Z,32.00
2018-10-05T19:45:34.362Z,32.00
2018-10-05T19:48:06.107Z,32.00
2018-10-05T19:50:37.700Z,32.00
2018-10-05T19:53:09.380Z,32.00
2018-10-05T19:55:40.901Z,32.00
2018-10-05T19:58:12.735Z,32.10
2018-10-05T20:00:44.040Z,32.10
2018-10-05T20:03:15.695Z,32.00
2018-10-05T20:05:47.232Z,32.00
2018-10-05T20:08:18.788Z,32.00
2018-10-05T20:10:50.298Z,32.00
2018-10-05T20:13:22.263Z,32.00
2018-10-05T20:15:53.527Z,32.00
2018-10-05T20:18:25.337Z,32.00
2018-10-05T20:20:56.789Z,32.00
2018-10-05T20:23:29.229Z,32.00
2018-10-05T20:26:00.688Z,31.90
2018-10-05T20:28:32.123Z,31.80
2018-10-05T20:31:03.799Z,31.90
2018-10-05T20:33:36.876Z,31.90
2018-10-05T20:36:08.378Z,31.80
2018-10-05T20:38:39.994Z,31.80
2018-10-05T20:41:11.904Z,31.80
2018-10-05T20:43:44.163Z,31.70
2018-10-05T20:46:15.524Z,31.70
2018-10-05T20:48:47.631Z,31.80
2018-10-05T20:51:19.064Z,31.80
2018-10-05T20:53:50.923Z,31.70
2018-10-05T20:56:22.180Z,31.70
2018-10-05T20:58:53.916Z,31.70
2018-10-05T21:01:25.026Z,31.70
2018-10-05T21:03:57.245Z,31.60
2018-10-05T21:06:28.729Z,31.70
2018-10-05T21:09:00.485Z,31.70
2018-10-05T21:11:31.667Z,31.50
2018-10-05T21:14:03.558Z,31.40
2018-10-05T21:16:35.188Z,31.40
2018-10-05T21:19:06.812Z,31.30
2018-10-05T21:21:38.180Z,31.20
2018-10-05T21:24:09.566Z,31.00
2018-10-05T21:26:41.525Z,31.10
2018-10-05T21:29:13.326Z,31.10
2018-10-05T21:31:44.763Z,31.10
2018-10-05T21:34:17.484Z,31.10
2018-10-05T21:36:48.907Z,31.10
2018-10-05T21:39:20.580Z,31.00
2018-10-05T21:41:51.876Z,31.00
2018-10-05T21:44:23.700Z,30.90
2018-10-05T21:46:54.863Z,30.90
2018-10-05T21:49:26.483Z,30.90
2018-10-05T21:51:57.624Z,31.00
2018-10-05T21:54:29.264Z,31.00
2018-10-05T21:57:00.893Z,31.00
2018-10-05T21:59:33.271Z,30.90
2018-10-05T22:02:04.655Z,30.90
2018-10-05T22:04:36.359Z,30.90
2018-10-05T22:07:07.736Z,30.90
2018-10-05T22:09:39.300Z,30.80
2018-10-05T22:12:10.701Z,30.70
2018-10-05T22:14:42.399Z,30.60
2018-10-05T22:17:13.759Z,30.60
2018-10-05T22:19:45.737Z,30.60
2018-10-05T22:22:17.264Z,30.60
2018-10-05T22:24:48.803Z,30.60
2018-10-05T22:27:20.371Z,30.60
2018-10-05T22:29:51.839Z,30.60
2018-10-05T22:32:23.169Z,30.60
2018-10-05T22:34:55.787Z,30.60
2018-10-05T22:37:27.015Z,30.60
2018-10-05T22:39:58.384Z,30.60
2018-10-05T22:42:29.848Z,30.60
2018-10-05T22:45:02.593Z,30.60
2018-10-05T22:47:34.008Z,30.60
2018-10-05T22:50:05.715Z,30.60
2018-10-05T22:52:37.071Z,30.60
2018-10-05T22:55:09.820Z,30.40
2018-10-05T22:57:41.551Z,30.40
2018-10-05T23:00:13.194Z,30.40
2018-10-05T23:02:44.606Z,30.40
2018-10-05T23:05:16.220Z,30.40
2018-10-05T23:07:47.747Z,30.40
2018-10-05T23:10:19.281Z,30.40
2018-10-05T23:12:50.554Z,30.30
2018-10-05T23:15:22.659Z,30.30
2018-10-05T23:17:54.307Z,30.20
2018-10-05T23:20:26.774Z,30.20
2018-10-05T23:22:58.235Z,30.20
2018-10-05T23:25:29.863Z,30.20
2018-10-05T23:28:01.224Z,30.20
2018-10-05T23:30:33.167Z,30.00
2018-10-05T23:33:05.483Z,30.00
2018-10-05T23:35:38.362Z,30.00
2018-10-05T23:38:09.701Z,30.00
2018-10-05T23:40:41.237Z,30.00
2018-10-05T23:43:12.574Z,29.90
2018-10-05T23:45:44.236Z,29.90
2018-10-05T23:48:15.515Z,29.80
2018-10-05T23:50:47.281Z,29.80
2018-10-05T23:53:18.903Z,29.70
2018-10-05T23:55:50.865Z,29.90
2018-10-05T23:58:22.050Z,29.80
